createdAt,value
2022-11-28T00:02:31.956Z,41.90
2022-11-28T00:05:06.286Z,44.70
2022-11-28T00:07:39.840Z,45.72
2022-11-28T00:10:14.093Z,44.88
2022-11-28T00:12:47.640Z,44.58
2022-11-28T00:15:21.403Z,44.58
2022-11-28T00:17:56.464Z,43.45
2022-11-28T00:20:31.533Z,43.85
2022-11-28T00:23:05.139Z,46.13
2022-11-28T00:25:38.639Z,43.85
2022-11-28T00:28:14.425Z,44.85
2022-11-28T00:30:48.079Z,46.70
2022-11-28T00:33:23.139Z,46.40
2022-11-28T00:36:00.282Z,46.88
2022-11-28T00:38:33.827Z,47.25
2022-11-28T00:41:08.646Z,42.42
2022-11-28T00:43:42.952Z,43.75
2022-11-28T00:46:17.830Z,40.22
2022-11-28T00:48:53.609Z,42.97
2022-11-28T00:51:31.498Z,44.00
2022-11-28T00:54:06.916Z,42.88
2022-11-28T00:56:41.737Z,41.03
2022-11-28T00:59:15.292Z,43.50
2022-11-28T01:01:48.922Z,43.03
2022-11-28T01:04:23.974Z,39.70
2022-11-28T01:06:58.375Z,41.00
2022-11-28T01:09:32.078Z,42.13
2022-11-28T01:12:05.987Z,42.53
2022-11-28T01:17:13.135Z,44.22
2022-11-28T01:19:48.128Z,43.97
2022-11-28T01:22:21.690Z,44.92
2022-11-28T01:24:55.380Z,43.55
2022-11-28T01:27:29.144Z,42.70
2022-11-28T01:30:02.617Z,44.05
2022-11-28T01:32:36.127Z,44.22
2022-11-28T01:35:11.303Z,45.28
2022-11-28T01:37:44.773Z,45.08
2022-11-28T01:40:18.332Z,43.90
2022-11-28T01:42:51.794Z,44.45
2022-11-28T01:45:27.333Z,44.63
2022-11-28T01:48:04.235Z,43.65
2022-11-28T01:50:39.840Z,43.78
2022-11-28T01:53:14.856Z,42.28
2022-11-28T01:55:53.985Z,41.28
2022-11-28T01:58:28.359Z,41.15
2022-11-28T02:01:02.290Z,44.45
2022-11-28T02:06:17.676Z,40.92
2022-11-28T02:08:52.782Z,41.00
2022-11-28T02:11:53.613Z,42.38
2022-11-28T02:14:44.911Z,42.78
2022-11-28T02:17:29.264Z,40.88
2022-11-28T02:23:06.386Z,36.65
2022-11-28T02:26:08.543Z,41.38
2022-11-28T02:29:19.449Z,42.65
2022-11-28T02:32:15.373Z,40.53
2022-11-28T02:34:58.958Z,40.58
2022-11-28T02:37:38.468Z,43.10
2022-11-28T02:40:23.756Z,38.47
2022-11-28T02:43:06.922Z,37.95
2022-11-28T02:45:49.334Z,37.20
2022-11-28T02:48:34.504Z,39.53
2022-11-28T02:51:12.839Z,38.95
2022-11-28T02:53:48.060Z,38.50
2022-11-28T02:56:21.613Z,38.42
2022-11-28T02:58:55.413Z,38.10
2022-11-28T03:01:39.032Z,38.28
2022-11-28T03:04:28.107Z,37.30
2022-11-28T03:07:13.855Z,35.60
2022-11-28T03:10:16.706Z,35.40
2022-11-28T03:13:07.752Z,36.83
2022-11-28T03:15:55.064Z,36.60
2022-11-28T03:18:34.389Z,32.75
2022-11-28T03:21:18.567Z,32.72
2022-11-28T03:24:01.201Z,32.70
2022-11-28T03:26:43.634Z,34.67
2022-11-28T03:29:24.764Z,34.85
2022-11-28T03:32:02.750Z,33.35
2022-11-28T03:34:51.967Z,30.67
2022-11-28T03:37:30.868Z,31.90
2022-11-28T03:40:09.152Z,29.23
2022-11-28T03:42:45.727Z,31.50
2022-11-28T03:45:23.347Z,30.05
2022-11-28T03:48:00.104Z,30.83
2022-11-28T03:50:37.244Z,28.48
2022-11-28T03:53:17.872Z,30.15
2022-11-28T03:55:57.580Z,31.67
2022-11-28T03:58:38.107Z,30.15
2022-11-28T04:01:22.224Z,33.03
2022-11-28T04:04:01.239Z,31.00
2022-11-28T04:06:45.482Z,31.60
2022-11-28T04:09:25.994Z,32.00
2022-11-28T04:12:06.627Z,31.23
2022-11-28T04:14:47.064Z,30.35
2022-11-28T04:17:26.685Z,31.08
2022-11-28T04:20:06.804Z,31.65
2022-11-28T04:22:46.379Z,31.00
2022-11-28T04:25:25.199Z,34.17
2022-11-28T04:28:04.718Z,32.95
2022-11-28T04:30:39.961Z,31.55
2022-11-28T04:33:15.733Z,34.00
2022-11-28T04:35:52.268Z,31.58
2022-11-28T04:38:27.934Z,31.55
2022-11-28T04:41:08.127Z,30.77
2022-11-28T04:43:45.163Z,31.35
2022-11-28T04:46:25.248Z,31.50
2022-11-28T04:48:59.444Z,30.67
2022-11-28T04:51:41.975Z,32.42
2022-11-28T04:54:22.196Z,33.28
2022-11-28T04:57:01.130Z,32.80
2022-11-28T04:59:34.981Z,30.92
2022-11-28T05:02:08.831Z,31.30
2022-11-28T05:04:44.977Z,30.80
2022-11-28T05:07:18.687Z,34.40
2022-11-28T05:09:52.453Z,33.95
2022-11-28T05:12:27.396Z,33.33
2022-11-28T05:15:00.938Z,36.05
2022-11-28T05:17:39.005Z,32.63
2022-11-28T05:20:16.150Z,32.92
2022-11-28T05:22:49.630Z,33.33
2022-11-28T05:25:23.201Z,32.78
2022-11-28T05:27:58.122Z,33.67
2022-11-28T05:30:31.627Z,32.00
2022-11-28T05:33:05.116Z,30.52
2022-11-28T05:35:40.863Z,30.90
2022-11-28T05:38:14.326Z,29.83
2022-11-28T05:40:47.918Z,32.40
2022-11-28T05:43:22.850Z,32.00
2022-11-28T05:45:56.855Z,32.67
2022-11-28T05:48:30.394Z,32.42
2022-11-28T05:51:05.748Z,35.13
2022-11-28T05:53:39.182Z,32.67
2022-11-28T05:56:14.887Z,34.13
2022-11-28T05:58:50.069Z,34.53
2022-11-28T06:01:25.875Z,33.25
2022-11-28T06:04:01.075Z,33.35
2022-11-28T06:06:36.559Z,32.22
2022-11-28T06:09:10.221Z,33.25
2022-11-28T06:11:43.692Z,40.78
2022-11-28T06:14:18.629Z,34.08
2022-11-28T06:16:52.184Z,37.40
2022-11-28T06:19:25.700Z,33.45
2022-11-28T06:21:59.578Z,36.42
2022-11-28T06:24:33.040Z,33.13
2022-11-28T06:27:06.595Z,34.50
2022-11-28T06:29:41.727Z,32.63
2022-11-28T06:32:18.918Z,32.22
2022-11-28T06:34:55.523Z,30.02
2022-11-28T06:37:29.642Z,30.50
2022-11-28T06:40:03.138Z,29.75
2022-11-28T06:42:37.010Z,29.48
2022-11-28T06:45:12.826Z,27.02
2022-11-28T06:47:46.308Z,28.27
2022-11-28T06:50:19.846Z,29.15
2022-11-28T06:52:53.352Z,28.08
2022-11-28T06:55:26.887Z,30.23
2022-11-28T06:58:00.480Z,30.75
2022-11-28T07:00:35.831Z,31.92
2022-11-28T07:03:09.401Z,32.40
2022-11-28T07:05:43.019Z,37.83
2022-11-28T07:08:18.969Z,36.35
2022-11-28T07:10:52.581Z,36.67
2022-11-28T07:13:26.395Z,36.88
2022-11-28T07:16:01.285Z,35.92
2022-11-28T07:18:34.964Z,37.38
2022-11-28T07:21:08.441Z,35.30
2022-11-28T07:23:42.446Z,34.65
2022-11-28T07:28:51.219Z,30.65
2022-11-28T07:31:26.903Z,28.63
2022-11-28T07:34:03.247Z,28.67
2022-11-28T07:36:40.043Z,29.60
2022-11-28T07:39:17.643Z,29.63
2022-11-28T07:41:51.211Z,28.02
2022-11-28T07:44:24.670Z,29.75
2022-11-28T07:46:59.667Z,29.27
2022-11-28T07:49:36.037Z,30.38
2022-11-28T07:52:09.545Z,33.08
2022-11-28T07:54:43.015Z,37.92
2022-11-28T07:57:16.527Z,38.55
2022-11-28T07:59:50.303Z,32.63
2022-11-28T08:02:26.169Z,33.58
2022-11-28T08:05:02.697Z,29.85
2022-11-28T08:07:36.232Z,26.98
2022-11-28T08:10:10.866Z,33.13
2022-11-28T08:12:48.556Z,28.98
2022-11-28T08:15:21.976Z,26.42
2022-11-28T08:17:56.972Z,26.40
2022-11-28T08:20:30.416Z,27.60
2022-11-28T08:23:03.859Z,27.20
2022-11-28T08:25:37.275Z,26.85
2022-11-28T08:28:10.722Z,26.83
2022-11-28T08:30:44.141Z,26.65
2022-11-28T08:33:19.062Z,26.20
2022-11-28T08:35:53.248Z,26.45
2022-11-28T08:38:26.775Z,27.38
2022-11-28T08:41:03.478Z,27.63
2022-11-28T08:43:37.741Z,28.70
2022-11-28T08:46:13.336Z,30.38
2022-11-28T08:48:49.773Z,26.52
2022-11-28T08:51:25.222Z,27.58
2022-11-28T08:53:59.713Z,30.95
2022-11-28T08:56:33.886Z,27.45
2022-11-28T08:59:08.465Z,28.17
2022-11-28T09:01:42.136Z,27.98
2022-11-28T09:04:17.190Z,29.02
2022-11-28T09:06:50.784Z,27.70
2022-11-28T09:09:25.599Z,27.08
2022-11-28T09:12:00.919Z,26.60
2022-11-28T09:14:38.030Z,30.15
2022-11-28T09:17:12.004Z,29.05
2022-11-28T09:24:53.735Z,28.60
2022-11-28T09:27:27.398Z,30.15
2022-11-28T09:30:00.895Z,29.73
2022-11-28T09:32:34.956Z,29.05
2022-11-28T09:37:46.709Z,25.70
2022-11-28T09:40:31.473Z,28.73
2022-11-28T09:43:10.610Z,24.63
2022-11-28T09:45:52.182Z,27.90
2022-11-28T09:48:34.155Z,27.05
2022-11-28T09:51:24.805Z,25.63
2022-11-28T09:54:08.523Z,26.08
2022-11-28T09:56:42.264Z,26.80
2022-11-28T09:59:25.958Z,25.98
2022-11-28T10:02:16.480Z,25.85
2022-11-28T10:04:58.219Z,24.23
2022-11-28T10:07:55.216Z,26.38
2022-11-28T10:10:40.319Z,25.98
2022-11-28T10:13:29.664Z,28.20
2022-11-28T10:16:13.610Z,26.55
2022-11-28T10:18:50.838Z,28.10
2022-11-28T10:21:38.434Z,27.20
2022-11-28T10:24:22.958Z,27.40
2022-11-28T10:27:00.566Z,27.20
2022-11-28T10:29:48.843Z,27.23
2022-11-28T10:32:32.114Z,26.50
2022-11-28T10:35:15.192Z,25.07
2022-11-28T10:37:49.582Z,27.33
2022-11-28T10:40:31.518Z,26.52
2022-11-28T10:43:12.547Z,27.13
2022-11-28T10:45:52.939Z,27.13
2022-11-28T10:48:39.944Z,26.77
2022-11-28T10:51:25.651Z,28.63
2022-11-28T10:54:11.061Z,24.67
2022-11-28T10:56:55.887Z,28.58
2022-11-28T10:59:38.220Z,26.23
2022-11-28T11:02:23.145Z,25.00
2022-11-28T11:04:57.011Z,23.83
2022-11-28T11:10:16.611Z,20.88
2022-11-28T11:12:53.655Z,21.90
2022-11-28T11:15:35.142Z,23.02
2022-11-28T11:18:24.122Z,22.73
2022-11-28T11:21:10.463Z,22.05
2022-11-28T11:23:44.427Z,22.15
2022-11-28T11:26:28.634Z,22.80
2022-11-28T11:31:45.612Z,25.40
2022-11-28T11:34:21.088Z,25.00
2022-11-28T11:37:21.955Z,22.52
2022-11-28T11:39:55.490Z,22.58
2022-11-28T11:42:30.694Z,21.05
2022-11-28T11:45:27.380Z,22.15
2022-11-28T11:48:01.442Z,23.55
2022-11-28T11:53:14.958Z,22.10
2022-11-28T11:55:52.057Z,23.00
2022-11-28T11:58:29.663Z,23.98
2022-11-28T12:01:06.578Z,20.42
2022-11-28T12:03:43.062Z,22.27
2022-11-28T12:06:23.223Z,25.55
2022-11-28T12:09:09.593Z,24.73
2022-11-28T12:11:49.027Z,21.42
2022-11-28T12:14:31.451Z,24.23
2022-11-28T12:17:47.501Z,23.58
2022-11-28T12:20:37.551Z,22.45
2022-11-28T12:23:29.123Z,25.10
2022-11-28T12:26:11.763Z,23.55
2022-11-28T12:28:59.292Z,24.00
2022-11-28T12:31:46.247Z,24.48
2022-11-28T12:34:33.378Z,23.00
2022-11-28T12:37:18.921Z,25.23
2022-11-28T12:40:00.740Z,22.33
2022-11-28T12:43:02.969Z,22.77
2022-11-28T12:45:43.943Z,22.00
2022-11-28T12:48:36.364Z,23.05
2022-11-28T12:51:22.684Z,23.90
2022-11-28T12:54:09.090Z,22.38
2022-11-28T12:56:55.551Z,20.67
2022-11-28T12:59:38.673Z,22.20
2022-11-28T13:02:26.853Z,23.67
2022-11-28T13:05:20.536Z,22.33
2022-11-28T13:08:19.264Z,25.17
2022-11-28T13:11:02.137Z,22.55
2022-11-28T13:13:42.017Z,20.70
2022-11-28T13:16:26.916Z,23.73
2022-11-28T13:19:06.585Z,21.23
2022-11-28T13:21:47.344Z,22.02
2022-11-28T13:24:29.053Z,21.67
2022-11-28T13:27:10.480Z,23.85
2022-11-28T13:29:51.605Z,23.25
2022-11-28T13:32:30.423Z,22.20
2022-11-28T13:35:04.994Z,23.85
2022-11-28T13:40:47.822Z,24.50
2022-11-28T13:43:26.913Z,27.50
2022-11-28T13:46:00.784Z,25.65
2022-11-28T13:51:48.058Z,23.05
2022-11-28T13:57:27.422Z,21.85
2022-11-28T14:00:05.307Z,22.67
2022-11-28T14:02:52.024Z,25.65
2022-11-28T14:05:35.636Z,24.50
2022-11-28T14:08:09.661Z,25.85
2022-11-28T14:11:07.574Z,26.65
2022-11-28T14:14:03.986Z,25.15
2022-11-28T14:16:52.153Z,25.75
2022-11-28T14:19:41.539Z,24.15
2022-11-28T14:22:28.131Z,25.08
2022-11-28T14:25:14.475Z,25.65
2022-11-28T14:27:54.865Z,25.45
2022-11-28T14:30:38.438Z,25.50
2022-11-28T14:33:20.329Z,27.27
2022-11-28T14:36:30.536Z,26.60
2022-11-28T14:39:12.919Z,23.33
2022-11-28T14:42:59.448Z,24.65
2022-11-28T14:45:45.462Z,23.88
2022-11-28T14:48:28.835Z,23.70
2022-11-28T14:51:02.723Z,23.30
2022-11-28T14:53:46.229Z,24.35
2022-11-28T14:56:27.573Z,22.90
2022-11-28T14:59:03.914Z,21.83
2022-11-28T15:01:51.854Z,24.45
2022-11-28T15:04:55.192Z,24.67
2022-11-28T15:07:37.138Z,24.05
2022-11-28T15:10:17.092Z,23.73
2022-11-28T15:12:59.991Z,24.70
2022-11-28T15:15:38.976Z,21.77
2022-11-28T15:18:14.598Z,23.80
2022-11-28T15:20:55.824Z,21.90
2022-11-28T15:23:32.702Z,21.55
2022-11-28T15:26:07.056Z,23.23
2022-11-28T15:28:43.715Z,21.05
2022-11-28T15:31:23.910Z,24.83
2022-11-28T15:33:59.115Z,23.38
2022-11-28T15:36:32.690Z,23.35
2022-11-28T15:39:06.579Z,23.13
2022-11-28T15:44:18.152Z,20.73
2022-11-28T15:46:52.254Z,24.48
2022-11-28T15:49:32.383Z,25.58
2022-11-28T15:52:18.529Z,24.73
2022-11-28T15:54:57.432Z,25.00
2022-11-28T15:57:32.775Z,22.50
2022-11-28T16:00:10.212Z,26.17
2022-11-28T16:02:53.524Z,24.75
2022-11-28T16:05:31.350Z,24.25
2022-11-28T16:08:07.821Z,24.70
2022-11-28T16:10:46.167Z,23.17
2022-11-28T16:13:25.028Z,23.77
2022-11-28T16:16:01.501Z,23.55
2022-11-28T16:18:35.616Z,23.63
2022-11-28T16:23:46.704Z,22.75
2022-11-28T16:26:26.465Z,22.35
2022-11-28T16:29:14.925Z,22.00
2022-11-28T16:31:51.069Z,20.38
2022-11-28T16:34:46.124Z,21.17
2022-11-28T16:37:27.023Z,21.02
2022-11-28T16:40:02.931Z,20.23
2022-11-28T16:42:36.835Z,20.33
2022-11-28T16:45:14.002Z,19.27
2022-11-28T16:47:47.760Z,18.98
2022-11-28T16:50:23.508Z,19.02
2022-11-28T16:53:04.902Z,18.98
2022-11-28T16:55:44.502Z,20.35
2022-11-28T16:58:23.356Z,20.73
2022-11-28T17:01:03.118Z,22.33
2022-11-28T17:03:57.960Z,23.92
2022-11-28T17:06:34.498Z,21.02
2022-11-28T17:09:12.924Z,20.50
2022-11-28T17:11:57.569Z,19.38
2022-11-28T17:14:31.084Z,18.13
2022-11-28T17:17:13.356Z,19.55
2022-11-28T17:19:47.445Z,17.98
2022-11-28T17:22:24.342Z,18.42
2022-11-28T17:25:02.388Z,19.05
2022-11-28T17:27:36.505Z,18.85
2022-11-28T17:30:20.392Z,17.88
2022-11-28T17:32:54.170Z,17.98
2022-11-28T17:35:35.580Z,17.30
2022-11-28T17:38:09.365Z,16.58
2022-11-28T17:40:44.989Z,16.27
2022-11-28T17:43:19.815Z,16.27
2022-11-28T17:45:53.582Z,16.40
2022-11-28T17:48:27.605Z,18.10
2022-11-28T17:51:02.201Z,18.02
2022-11-28T17:53:35.812Z,17.92
2022-11-28T17:56:12.892Z,17.48
2022-11-28T17:58:46.537Z,19.10
2022-11-28T18:01:26.519Z,19.80
2022-11-28T18:04:05.414Z,21.40
2022-11-28T18:06:39.049Z,20.10
2022-11-28T18:09:13.961Z,20.02
2022-11-28T18:11:49.072Z,19.65
2022-11-28T18:14:22.799Z,19.25
2022-11-28T18:19:30.638Z,19.77
2022-11-28T18:24:53.737Z,16.73
2022-11-28T18:27:38.892Z,17.52
2022-11-28T18:30:18.426Z,17.27
2022-11-28T18:32:56.825Z,18.33
2022-11-28T18:35:35.635Z,17.83
2022-11-28T18:38:19.737Z,17.25
2022-11-28T18:40:55.005Z,17.95
2022-11-28T18:43:38.996Z,18.65
2022-11-28T18:46:18.402Z,17.05
2022-11-28T18:49:00.519Z,20.65
2022-11-28T18:51:42.647Z,18.55
2022-11-28T18:54:28.677Z,17.02
2022-11-28T18:57:04.789Z,17.15
2022-11-28T18:59:46.168Z,17.48
2022-11-28T19:02:27.367Z,14.30
2022-11-28T19:05:08.949Z,16.08
2022-11-28T19:07:45.667Z,15.88
2022-11-28T19:10:22.831Z,15.80
2022-11-28T19:13:09.765Z,15.93
2022-11-28T19:15:53.158Z,15.15
2022-11-28T19:18:32.986Z,15.80
2022-11-28T19:21:07.997Z,16.02
2022-11-28T19:23:49.971Z,15.07
2022-11-28T19:26:29.397Z,16.00
2022-11-28T19:29:07.365Z,15.80
2022-11-28T19:31:56.679Z,16.42
2022-11-28T19:34:33.835Z,15.45
2022-11-28T19:37:15.616Z,15.95
2022-11-28T19:40:02.776Z,17.20
2022-11-28T19:42:42.491Z,15.70
2022-11-28T19:45:25.594Z,15.63
2022-11-28T19:48:05.817Z,16.50
2022-11-28T19:50:42.751Z,15.65
2022-11-28T19:53:17.025Z,15.05
2022-11-28T19:56:10.289Z,17.45
2022-11-28T19:58:48.909Z,15.80
2022-11-28T20:01:33.252Z,17.75
2022-11-28T20:04:11.910Z,16.70
2022-11-28T20:06:48.705Z,16.52
2022-11-28T20:09:29.383Z,15.63
2022-11-28T20:12:03.635Z,16.40
2022-11-28T20:14:54.410Z,14.05
2022-11-28T20:20:47.618Z,16.80
2022-11-28T20:23:33.509Z,16.65
2022-11-28T20:26:08.929Z,17.13
2022-11-28T20:28:55.359Z,17.48
2022-11-28T20:31:40.237Z,16.05
2022-11-28T20:34:23.080Z,17.30
2022-11-28T20:37:16.056Z,17.42
2022-11-28T20:39:57.706Z,17.05
2022-11-28T20:42:40.008Z,19.15
2022-11-28T20:45:14.978Z,22.02
2022-11-28T20:47:53.659Z,16.20
2022-11-28T20:50:33.909Z,18.42
2022-11-28T20:53:27.040Z,18.10
2022-11-28T20:56:05.148Z,19.60
2022-11-28T20:58:40.595Z,19.13
2022-11-28T21:01:34.795Z,20.63
2022-11-28T21:04:22.078Z,18.38
2022-11-28T21:07:00.772Z,19.48
2022-11-28T21:09:41.017Z,18.83
2022-11-28T21:12:21.114Z,17.42
2022-11-28T21:15:04.389Z,19.10
2022-11-28T21:17:48.568Z,18.65
2022-11-28T21:23:09.603Z,18.17
2022-11-28T21:25:54.105Z,18.85
2022-11-28T21:28:38.673Z,20.48
2022-11-28T21:31:19.373Z,19.65
2022-11-28T21:34:01.722Z,18.37
2022-11-28T21:36:42.327Z,20.25
2022-11-28T21:39:21.100Z,20.88
2022-11-28T21:41:59.414Z,21.05
2022-11-28T21:44:41.067Z,19.92
2022-11-28T21:47:22.629Z,21.35
2022-11-28T21:50:03.775Z,19.95
2022-11-28T21:52:41.667Z,18.63
2022-11-28T21:55:26.139Z,19.52
2022-11-28T21:58:01.740Z,19.65
2022-11-28T22:00:53.253Z,20.20
2022-11-28T22:03:35.082Z,20.73
2022-11-28T22:06:17.254Z,19.70
2022-11-28T22:09:09.616Z,19.33
2022-11-28T22:11:44.226Z,19.63
2022-11-28T22:14:19.177Z,18.02
2022-11-28T22:16:52.763Z,19.20
2022-11-28T22:19:47.414Z,18.17
2022-11-28T22:22:22.535Z,18.55
2022-11-28T22:25:14.757Z,19.00
2022-11-28T22:27:56.898Z,18.48
2022-11-28T22:30:43.681Z,18.30
2022-11-28T22:33:24.783Z,19.20
2022-11-28T22:36:10.981Z,18.73
2022-11-28T22:38:48.305Z,18.83
2022-11-28T22:41:37.049Z,17.35
2022-11-28T22:44:16.011Z,16.35
2022-11-28T22:46:54.389Z,19.00
2022-11-28T22:49:28.749Z,18.00
2022-11-28T22:52:05.583Z,17.30
2022-11-28T22:54:43.231Z,16.73
2022-11-28T22:57:22.601Z,15.32
2022-11-28T22:59:59.551Z,16.92
2022-11-28T23:02:37.443Z,18.73
2022-11-28T23:05:14.250Z,17.58
2022-11-28T23:07:52.281Z,16.52
2022-11-28T23:10:31.895Z,15.20
2022-11-28T23:13:11.227Z,16.80
2022-11-28T23:15:53.681Z,17.33
2022-11-28T23:18:29.676Z,17.48
2022-11-28T23:21:06.904Z,13.90
2022-11-28T23:23:48.174Z,15.77
2022-11-28T23:26:25.701Z,15.18
2022-11-28T23:29:04.068Z,15.00
2022-11-28T23:31:43.711Z,14.70
2022-11-28T23:34:20.981Z,14.55
2022-11-28T23:36:57.265Z,15.07
2022-11-28T23:39:36.000Z,14.70
2022-11-28T23:42:16.916Z,14.60
2022-11-28T23:44:53.076Z,14.57
2022-11-28T23:47:30.334Z,13.95
2022-11-28T23:50:18.788Z,14.82
2022-11-28T23:52:53.167Z,14.95
2022-11-28T23:55:29.227Z,15.90
2022-11-28T23:58:09.281Z,16.08
